Time;durP1;ratioP1;P1;durP2;ratioP2;P2;SDS_P1;SDS_P2;PMS_P1;PMS_P2;Temp;Humidity;BMP_temperature;BMP_pressure;BME280_temperature;BME280_humidity;BME280_pressure;Samples;Min_cycle;Max_cycle;Signal;HPM_P1;HPM_P2
2021/06/05 00:00:22;;;;;;;5.37;4.87;;;;;;;17.32;52.39;95796.03;5055916;28;20439;-66
2021/06/05 00:02:49;;;;;;;8.77;5.20;;;;;;;17.29;53.00;95796.56;5070800;28;20533;-65
2021/06/05 00:05:16;;;;;;;9.63;5.30;;;;;;;17.32;52.98;95796.81;5064884;28;20454;-64
2021/06/05 00:07:43;;;;;;;9.23;5.20;;;;;;;17.30;53.14;95800.81;5065517;28;20449;-66
2021/06/05 00:10:19;;;;;;;5.90;5.13;;;;;;;17.16;53.62;95795.31;5068104;28;20439;-68
2021/06/05 00:12:45;;;;;;;8.87;5.40;;;;;;;17.28;53.50;95808.25;5053173;28;20441;-64
2021/06/05 00:15:20;;;;;;;11.37;5.10;;;;;;;17.27;52.93;95782.81;5066253;28;21006;-67
2021/06/05 00:17:47;;;;;;;14.13;5.77;;;;;;;17.28;53.49;95795.00;5053114;28;20438;-64
2021/06/05 00:20:14;;;;;;;10.10;5.40;;;;;;;17.12;53.29;95803.03;5055265;28;20448;-65
2021/06/05 00:22:41;;;;;;;12.37;5.67;;;;;;;17.19;53.87;95808.81;5063537;28;20446;-66
2021/06/05 00:25:13;;;;;;;9.80;5.80;;;;;;;17.29;52.71;95801.88;5067800;28;20445;-67
2021/06/05 00:27:40;;;;;;;10.33;5.97;;;;;;;17.26;53.46;95791.84;5064969;28;20435;-65
2021/06/05 00:30:08;;;;;;;13.53;6.23;;;;;;;17.31;52.97;95799.75;5066048;28;20473;-64
2021/06/05 00:32:35;;;;;;;12.37;5.93;;;;;;;17.26;53.10;95791.84;5059309;28;20541;-66
2021/06/05 00:35:03;;;;;;;12.70;6.00;;;;;;;17.16;53.26;95804.06;5057871;28;20497;-66
2021/06/05 00:37:31;;;;;;;6.57;5.90;;;;;;;17.24;53.59;95790.22;5061394;28;20441;-67
2021/06/05 00:39:58;;;;;;;6.87;5.27;;;;;;;17.19;52.93;95792.91;5072195;28;20499;-66
2021/06/05 00:42:25;;;;;;;9.17;6.20;;;;;;;17.30;53.13;95793.63;5071099;28;20430;-63
2021/06/05 00:44:52;;;;;;;12.80;6.23;;;;;;;17.20;53.55;95794.53;5071872;28;20442;-68
2021/06/05 00:47:20;;;;;;;9.73;6.13;;;;;;;17.14;53.49;95798.25;5058335;28;20545;-65
2021/06/05 00:49:47;;;;;;;7.80;5.63;;;;;;;17.21;53.42;95784.69;5060242;28;20439;-66
2021/06/05 00:52:20;;;;;;;7.97;5.57;;;;;;;17.20;53.35;95783.13;5068557;28;20832;-66
2021/06/05 00:54:48;;;;;;;7.17;6.10;;;;;;;17.20;53.43;95783.94;5070695;28;20508;-64
2021/06/05 00:57:17;;;;;;;9.50;6.67;;;;;;;16.74;54.86;95793.16;5072027;28;20444;-63
2021/06/05 00:59:45;;;;;;;12.00;6.80;;;;;;;16.71;55.68;95796.38;5072058;28;20515;-70
2021/06/05 01:02:13;;;;;;;7.30;5.83;;;;;;;17.02;54.18;95800.44;5070954;28;20959;-68
2021/06/05 01:04:42;;;;;;;10.83;6.13;;;;;;;16.91;54.21;95801.56;5069246;28;20491;-66
2021/06/05 01:07:18;;;;;;;12.77;5.60;;;;;;;16.71;55.23;95801.66;5052515;28;20446;-69
2021/06/05 01:10:17;;;;;;;12.77;6.10;;;;;;;16.84;54.66;95810.88;5051165;28;20535;-63
2021/06/05 01:13:07;;;;;;;9.43;5.50;;;;;;;16.69;55.06;95814.38;5048819;28;20885;-70
2021/06/05 01:15:45;;;;;;;9.20;6.03;;;;;;;16.67;54.56;95819.16;5050507;28;20497;-69
2021/06/05 01:18:25;;;;;;;10.33;7.57;;;;;;;16.63;55.63;95825.22;5065659;28;20434;-68
2021/06/05 01:21:22;;;;;;;12.93;8.10;;;;;;;16.66;54.71;95825.47;5059544;28;20483;-68
2021/06/05 01:24:03;;;;;;;12.90;9.13;;;;;;;16.69;55.44;95830.25;5047764;28;20509;-66
2021/06/05 01:26:34;;;;;;;14.80;10.17;;;;;;;16.71;55.00;95817.53;5050596;28;20462;-65
2021/06/05 01:29:21;;;;;;;13.43;10.43;;;;;;;16.66;54.95;95814.91;5069872;28;20454;-65
2021/06/05 01:31:54;;;;;;;13.70;10.03;;;;;;;16.55;55.37;95816.00;5071436;28;21030;-63
2021/06/05 01:34:27;;;;;;;13.70;11.17;;;;;;;16.62;54.79;95827.09;5066478;28;21448;-65
2021/06/05 01:36:55;;;;;;;15.63;10.10;;;;;;;16.66;55.21;95825.47;5055150;28;20943;-65
2021/06/05 01:39:28;;;;;;;19.13;12.23;;;;;;;15.99;57.14;95825.09;5069928;28;20967;-68
2021/06/05 01:42:00;;;;;;;16.20;10.93;;;;;;;15.93;57.92;95823.53;5070933;28;20879;-66
2021/06/05 01:44:32;;;;;;;14.30;11.10;;;;;;;15.92;57.50;95829.84;5069814;28;20461;-69
2021/06/05 01:47:02;;;;;;;12.83;9.33;;;;;;;15.97;57.69;95832.50;5071163;28;20442;-64
2021/06/05 01:49:30;;;;;;;9.30;7.83;;;;;;;16.06;58.09;95828.25;5069426;28;20975;-66
2021/06/05 01:52:03;;;;;;;12.10;8.97;;;;;;;16.03;57.24;95821.66;5071058;28;20442;-65
2021/06/05 01:54:41;;;;;;;12.67;8.83;;;;;;;16.18;57.27;95818.19;5069236;28;20522;-65
2021/06/05 01:57:16;;;;;;;12.03;7.83;;;;;;;16.17;58.18;95819.25;5054755;28;20450;-64
2021/06/05 01:59:57;;;;;;;15.47;8.70;;;;;;;16.07;57.49;95817.44;5061096;28;20470;-66
2021/06/05 02:02:37;;;;;;;11.50;7.73;;;;;;;15.73;58.54;95820.91;5070307;28;20927;-65
2021/06/05 02:05:07;;;;;;;12.00;8.20;;;;;;;16.00;57.49;95816.13;5068977;28;21040;-67
2021/06/05 02:07:36;;;;;;;13.47;8.60;;;;;;;15.99;57.78;95814.50;5069605;28;20446;-67
2021/06/05 02:10:10;;;;;;;15.63;12.23;;;;;;;16.07;58.02;95814.00;5052797;28;20466;-65
2021/06/05 02:12:40;;;;;;;13.30;9.93;;;;;;;16.12;57.35;95811.31;5066569;28;20470;-64
2021/06/05 02:15:30;;;;;;;11.30;9.57;;;;;;;16.28;57.26;95810.22;5067655;28;20573;-66
2021/06/05 02:18:09;;;;;;;12.00;9.13;;;;;;;16.39;56.75;95814.44;5069382;28;20446;-68
2021/06/05 02:21:16;;;;;;;11.00;8.50;;;;;;;16.32;56.20;95813.94;5063207;28;20971;-66
2021/06/05 02:23:49;;;;;;;11.17;7.80;;;;;;;16.31;56.21;95811.56;5065108;28;20904;-66
2021/06/05 02:26:20;;;;;;;16.40;8.63;;;;;;;16.30;55.95;95810.75;5070084;28;20452;-67
2021/06/05 02:28:53;;;;;;;12.40;7.90;;;;;;;16.09;56.78;95819.81;5066280;28;20438;-66
2021/06/05 02:31:21;;;;;;;14.67;7.93;;;;;;;16.07;56.76;95814.00;5048271;28;20479;-65
2021/06/05 02:33:49;;;;;;;12.30;7.60;;;;;;;16.21;56.54;95817.66;5065451;28;20486;-67
2021/06/05 02:36:19;;;;;;;14.07;8.00;;;;;;;16.08;55.67;95797.06;5067940;28;20524;-65
2021/06/05 02:38:50;;;;;;;12.47;8.77;;;;;;;16.10;56.88;95826.66;5062583;28;20445;-66
2021/06/05 02:41:23;;;;;;;10.67;7.67;;;;;;;16.03;56.65;95824.31;5060552;28;20438;-69
2021/06/05 02:43:54;;;;;;;10.90;8.37;;;;;;;16.06;56.68;95820.31;5067675;28;20540;-65
2021/06/05 02:46:34;;;;;;;12.20;8.70;;;;;;;15.98;56.61;95823.53;5068906;28;20878;-67
2021/06/05 02:49:18;;;;;;;12.63;7.90;;;;;;;16.09;56.76;95819.81;5068874;28;20452;-67
2021/06/05 02:51:50;;;;;;;15.20;9.30;;;;;;;15.83;57.10;95820.88;5069135;28;20454;-68
2021/06/05 02:54:24;;;;;;;11.43;8.50;;;;;;;15.86;56.84;95818.50;5056237;28;20902;-66
2021/06/05 02:56:53;;;;;;;13.83;9.67;;;;;;;15.64;58.11;95814.53;5068208;28;20446;-64
2021/06/05 02:59:21;;;;;;;13.40;9.47;;;;;;;15.39;58.74;95819.78;5067598;28;20469;-67
2021/06/05 03:01:52;;;;;;;18.13;9.67;;;;;;;15.24;58.61;95794.94;5067040;28;20473;-66
2021/06/05 03:04:21;;;;;;;13.70;9.23;;;;;;;15.60;58.23;95816.13;5054256;28;20533;-67
2021/06/05 03:06:50;;;;;;;14.20;9.93;;;;;;;15.66;58.29;95820.34;5067985;28;21039;-65
2021/06/05 03:09:20;;;;;;;20.40;10.23;;;;;;;15.82;57.68;95824.59;5057130;28;20435;-62
2021/06/05 03:11:50;;;;;;;16.27;9.73;;;;;;;15.84;56.77;95790.72;5054210;28;20449;-64
2021/06/05 03:14:19;;;;;;;17.47;9.33;;;;;;;15.92;56.86;95814.00;5065281;28;20505;-69
2021/06/05 03:16:47;;;;;;;12.53;9.13;;;;;;;15.93;56.88;95820.88;5058308;28;20446;-69
2021/06/05 03:19:17;;;;;;;15.20;8.87;;;;;;;16.09;57.13;95814.50;5066841;28;20453;-68
2021/06/05 03:21:46;;;;;;;11.53;8.50;;;;;;;15.72;57.96;95816.66;5065274;28;20852;-68
2021/06/05 03:24:22;;;;;;;14.67;9.30;;;;;;;15.76;58.29;95815.06;5051027;28;20523;-67
2021/06/05 03:26:53;;;;;;;15.63;8.83;;;;;;;15.98;57.20;95807.66;5065044;28;20815;-69
2021/06/05 03:29:22;;;;;;;11.13;8.60;;;;;;;15.95;57.20;95802.88;5043147;28;170570;-70
2021/06/05 03:31:56;;;;;;;21.07;8.30;;;;;;;16.02;56.84;95809.47;5049626;28;20967;-68
2021/06/05 03:34:27;;;;;;;14.07;8.83;;;;;;;16.07;56.92;95795.47;5051492;28;20510;-68
2021/06/05 03:36:54;;;;;;;13.80;9.37;;;;;;;16.00;56.71;95784.38;5058202;28;20453;-68
2021/06/05 03:39:22;;;;;;;14.90;8.57;;;;;;;16.21;56.44;95815.00;5063297;28;20446;-68
2021/06/05 03:41:53;;;;;;;16.50;9.43;;;;;;;16.22;56.27;95809.44;5052361;28;20533;-68
2021/06/05 03:44:22;;;;;;;15.27;9.17;;;;;;;16.30;55.53;95816.03;5061245;28;20433;-68
2021/06/05 03:46:51;;;;;;;11.47;7.90;;;;;;;16.24;55.84;95807.31;5071728;28;20823;-69
2021/06/05 03:49:19;;;;;;;16.53;8.60;;;;;;;16.43;55.63;95810.19;5072705;28;20469;-69
2021/06/05 03:51:46;;;;;;;12.93;7.80;;;;;;;16.27;55.42;95806.00;5058821;28;20457;-68
2021/06/05 03:54:14;;;;;;;10.43;6.93;;;;;;;16.30;54.94;95807.31;5071011;28;20478;-71
2021/06/05 03:56:41;;;;;;;8.60;6.63;;;;;;;16.31;55.14;95806.25;5072597;28;20433;-70
2021/06/05 03:59:10;;;;;;;10.97;6.80;;;;;;;16.50;54.77;95794.84;5071586;28;20449;-69
2021/06/05 04:01:37;;;;;;;8.97;6.00;;;;;;;16.52;54.35;95805.97;5072607;28;21010;-70
2021/06/05 04:04:05;;;;;;;6.93;6.00;;;;;;;16.71;53.96;95804.31;5058159;28;20445;-71
2021/06/05 04:06:32;;;;;;;8.57;6.20;;;;;;;16.60;54.22;95809.91;5056361;28;20447;-70
2021/06/05 04:08:59;;;;;;;6.90;6.20;;;;;;;16.61;54.07;95817.56;5059911;28;20441;-69
2021/06/05 04:11:29;;;;;;;6.53;5.83;;;;;;;16.90;53.12;95820.34;5071814;28;20503;-68
2021/06/05 04:13:57;;;;;;;6.33;5.60;;;;;;;16.84;53.40;95806.34;5064644;28;20431;-68
2021/06/05 04:16:24;;;;;;;6.73;5.40;;;;;;;16.66;53.70;95804.31;5062656;28;20572;-68
2021/06/05 04:18:51;;;;;;;7.43;6.07;;;;;;;16.58;53.89;95807.53;5066349;28;21343;-69
2021/06/05 04:21:21;;;;;;;8.17;5.60;;;;;;;16.61;54.01;95809.63;5072378;28;20533;-67
2021/06/05 04:23:50;;;;;;;8.80;5.67;;;;;;;16.55;54.12;95802.75;5062624;28;20447;-68
2021/06/05 04:26:20;;;;;;;8.60;6.00;;;;;;;16.55;54.50;95792.19;5060529;28;21001;-68
2021/06/05 04:28:47;;;;;;;7.07;5.10;;;;;;;16.82;54.08;95792.59;5068726;28;20449;-68
2021/06/05 04:31:14;;;;;;;14.73;5.90;;;;;;;16.60;55.83;95792.19;5072765;28;20477;-67
2021/06/05 04:33:42;;;;;;;7.73;5.20;;;;;;;16.78;54.97;95791.56;5071316;28;20487;-68
2021/06/05 04:36:14;;;;;;;6.03;5.43;;;;;;;16.91;54.91;95804.22;5069307;28;20504;-69
2021/06/05 04:38:42;;;;;;;7.87;5.83;;;;;;;16.96;54.11;95796.25;5072077;28;20430;-67
2021/06/05 04:41:12;;;;;;;6.43;5.83;;;;;;;16.98;54.74;95791.47;5073139;28;20430;-67
2021/06/05 04:43:40;;;;;;;6.60;5.67;;;;;;;17.25;54.34;95780.44;5057796;28;20819;-67
2021/06/05 04:46:12;;;;;;;7.33;5.40;;;;;;;17.21;54.34;95779.41;5072309;28;20445;-69
2021/06/05 04:48:42;;;;;;;10.60;5.67;;;;;;;16.97;53.87;95783.81;5067701;28;20465;-68
2021/06/05 04:51:10;;;;;;;5.27;4.77;;;;;;;16.99;53.91;95782.44;5060477;28;20960;-67
2021/06/05 04:53:38;;;;;;;6.43;4.80;;;;;;;17.15;53.07;95775.22;5071667;28;20947;-66
2021/06/05 04:56:06;;;;;;;9.67;5.60;;;;;;;16.99;53.76;95782.44;5071607;28;21088;-68
2021/06/05 04:58:33;;;;;;;8.77;5.40;;;;;;;16.79;53.90;95777.25;5071459;28;20503;-68
2021/06/05 05:01:00;;;;;;;8.23;5.63;;;;;;;16.61;54.31;95775.22;5058323;28;20430;-67
2021/06/05 05:03:29;;;;;;;9.63;5.73;;;;;;;17.12;53.86;95771.25;5072183;28;20507;-67
2021/06/05 05:06:00;;;;;;;6.87;5.53;;;;;;;17.30;52.97;95772.44;5060948;28;20443;-68
2021/06/05 05:08:28;;;;;;;7.40;5.30;;;;;;;17.53;53.30;95763.84;5069775;28;20758;-68
2021/06/05 05:10:56;;;;;;;6.87;5.40;;;;;;;17.58;53.66;95769.09;5072486;28;20495;-68
2021/06/05 05:13:27;;;;;;;7.20;5.97;;;;;;;17.08;54.33;95745.56;5054591;28;20859;-68
2021/06/05 05:15:55;;;;;;;8.00;6.63;;;;;;;17.08;55.02;95738.44;5052254;28;21026;-68
2021/06/05 05:18:23;;;;;;;10.07;6.37;;;;;;;17.29;55.32;95751.53;5065213;28;20449;-67
2021/06/05 05:20:52;;;;;;;9.70;7.57;;;;;;;17.65;53.95;95751.00;5052275;28;20446;-67
2021/06/05 05:23:20;;;;;;;10.73;7.10;;;;;;;17.26;54.94;95749.44;5051837;28;20983;-67
2021/06/05 05:25:47;;;;;;;9.73;7.37;;;;;;;17.55;54.03;95742.38;5064910;28;20439;-66
2021/06/05 05:28:16;;;;;;;9.57;7.40;;;;;;;17.57;53.58;95756.13;5064097;28;20990;-67
2021/06/05 05:30:47;;;;;;;15.47;8.87;;;;;;;17.58;54.72;95753.19;5066028;28;20463;-67
2021/06/05 05:33:14;;;;;;;12.03;8.20;;;;;;;17.88;53.77;95747.59;5063886;28;21073;-67
2021/06/05 05:35:41;;;;;;;14.83;9.83;;;;;;;18.41;53.73;95743.09;5071604;28;20485;-69
2021/06/05 05:38:10;;;;;;;18.23;10.07;;;;;;;18.19;54.79;95748.88;5071255;28;20446;-68
2021/06/05 05:40:39;;;;;;;13.30;9.33;;;;;;;17.91;54.15;95740.97;5051784;28;20953;-69
2021/06/05 05:43:06;;;;;;;14.67;9.03;;;;;;;17.93;54.58;95744.13;5063643;28;20955;-68
2021/06/05 05:45:32;;;;;;;17.10;9.20;;;;;;;17.99;55.03;95737.72;5057093;28;20477;-69
2021/06/05 05:48:03;;;;;;;12.93;9.97;;;;;;;18.23;54.49;95746.44;5060513;28;20493;-69
2021/06/05 05:50:31;;;;;;;19.57;9.97;;;;;;;18.31;54.30;95745.03;5050881;28;20965;-69
2021/06/05 05:52:59;;;;;;;17.27;9.60;;;;;;;18.18;54.70;95730.59;5061482;28;20442;-67
2021/06/05 05:55:28;;;;;;;14.57;9.60;;;;;;;18.16;54.01;95748.66;5067964;28;20527;-68
2021/06/05 05:57:55;;;;;;;16.87;10.03;;;;;;;18.13;53.71;95744.72;5059810;28;20830;-69
2021/06/05 06:00:27;;;;;;;13.47;9.47;;;;;;;18.31;53.71;95751.16;5066890;28;20507;-67
2021/06/05 06:02:54;;;;;;;16.37;10.43;;;;;;;18.44;53.56;95731.94;5071287;28;20491;-68
2021/06/05 06:05:22;;;;;;;14.73;9.50;;;;;;;18.53;53.26;95735.53;5061739;28;20470;-68
2021/06/05 06:07:49;;;;;;;15.10;10.00;;;;;;;18.44;54.33;95739.88;5064228;28;20631;-70
2021/06/05 06:10:21;;;;;;;20.53;10.50;;;;;;;18.65;54.14;95746.50;5070111;28;20440;-64
2021/06/05 06:12:49;;;;;;;16.27;10.20;;;;;;;18.62;54.50;95736.47;5067709;28;20833;-69
2021/06/05 06:15:23;;;;;;;15.00;9.60;;;;;;;18.56;54.37;95726.97;5055089;28;20471;-69
2021/06/05 06:17:50;;;;;;;20.67;10.93;;;;;;;18.32;53.78;95736.78;5057484;28;20450;-67
2021/06/05 06:20:25;;;;;;;13.90;9.57;;;;;;;18.57;54.22;95733.09;5050643;28;20430;-68
2021/06/05 06:22:53;;;;;;;15.07;10.13;;;;;;;18.76;53.99;95737.34;5049162;28;20454;-66
2021/06/05 06:25:27;;;;;;;15.50;9.77;;;;;;;19.11;53.88;95728.88;5052334;28;20439;-69
2021/06/05 06:27:54;;;;;;;26.17;19.90;;;;;;;19.27;52.81;95736.63;5060357;28;20456;-68
2021/06/05 06:30:33;;;;;;;69.67;53.83;;;;;;;19.36;54.60;95730.38;5059767;28;20469;-68
2021/06/05 06:33:02;;;;;;;19.33;12.20;;;;;;;19.66;53.16;95732.56;5058235;28;20522;-67
2021/06/05 06:35:33;;;;;;;18.27;11.80;;;;;;;19.45;53.11;95725.22;5060065;28;20488;-69
2021/06/05 06:38:02;;;;;;;13.80;11.97;;;;;;;19.54;52.11;95732.25;5066833;28;20445;-68
2021/06/05 06:40:35;;;;;;;21.53;11.97;;;;;;;19.81;51.07;95726.19;5065002;28;20514;-67
2021/06/05 06:43:04;;;;;;;18.40;12.60;;;;;;;19.70;52.89;95722.13;5062607;28;20465;-68
2021/06/05 06:45:39;;;;;;;15.67;11.27;;;;;;;19.75;53.71;95722.03;5063229;28;20465;-67
2021/06/05 06:48:06;;;;;;;47.47;33.57;;;;;;;20.10;52.52;95716.09;5062031;28;20447;-67
2021/06/05 06:50:33;;;;;;;52.20;42.03;;;;;;;20.07;52.70;95720.09;5056322;28;20807;-65
2021/06/05 06:53:00;;;;;;;14.30;11.20;;;;;;;20.06;52.37;95718.53;5070184;28;20473;-67
2021/06/05 06:55:28;;;;;;;19.70;10.93;;;;;;;20.04;51.67;95715.38;5069821;28;20509;-73
2021/06/05 06:57:56;;;;;;;22.60;12.73;;;;;;;20.12;51.81;95705.94;5070529;28;20442;-68
2021/06/05 07:00:30;;;;;;;17.20;10.10;;;;;;;20.03;51.88;95708.50;5069723;28;20196;-65
2021/06/05 07:02:57;;;;;;;17.83;10.33;;;;;;;20.10;51.23;95684.16;5070402;28;20203;-68
2021/06/05 07:05:25;;;;;;;24.03;14.10;;;;;;;20.35;50.68;95699.66;5068356;28;20448;-65
2021/06/05 07:08:05;;;;;;;129.93;112.43;;;;;;;20.45;50.19;95704.78;5056832;28;20447;-65
2021/06/05 07:10:32;;;;;;;31.87;23.10;;;;;;;20.39;50.37;95695.31;5050131;28;20196;-67
2021/06/05 07:12:59;;;;;;;18.50;11.03;;;;;;;20.48;51.75;95704.19;5049707;28;20454;-66
2021/06/05 07:15:27;;;;;;;21.33;13.53;;;;;;;20.58;50.09;95696.00;5049636;28;20479;-65
2021/06/05 07:17:53;;;;;;;12.07;10.07;;;;;;;20.42;50.67;95694.72;5050174;28;20275;-65
2021/06/05 07:20:21;;;;;;;14.20;11.20;;;;;;;20.55;50.23;95696.56;5067079;28;20726;-66
2021/06/05 07:22:47;;;;;;;21.97;12.27;;;;;;;20.49;50.99;95697.75;5069491;28;20298;-67
2021/06/05 07:25:14;;;;;;;51.77;34.67;;;;;;;20.67;50.19;95702.19;5068626;28;20694;-66
2021/06/05 07:27:41;;;;;;;21.30;13.30;;;;;;;20.87;50.27;95695.63;5069643;28;20202;-66
2021/06/05 07:30:09;;;;;;;15.53;10.90;;;;;;;20.48;49.31;95698.84;5068713;28;20231;-67
2021/06/05 07:32:36;;;;;;;15.00;11.23;;;;;;;20.73;50.04;95692.22;5062836;28;20199;-64
2021/06/05 07:35:04;;;;;;;15.40;9.57;;;;;;;20.67;50.99;95702.19;5062414;28;20303;-63
2021/06/05 07:37:31;;;;;;;15.10;10.03;;;;;;;20.93;50.04;95687.22;5069636;28;20672;-64
2021/06/05 07:39:58;;;;;;;17.77;10.37;;;;;;;21.09;49.63;95696.47;5067963;28;20691;-65
2021/06/05 07:42:25;;;;;;;16.47;9.53;;;;;;;21.09;50.00;95687.69;5049895;28;20204;-67
2021/06/05 07:44:52;;;;;;;15.07;9.13;;;;;;;21.30;49.00;95688.00;5062240;28;20200;-64
2021/06/05 07:47:18;;;;;;;14.80;9.83;;;;;;;21.46;49.70;95691.88;5055448;28;20192;-65
2021/06/05 07:49:45;;;;;;;21.10;9.57;;;;;;;21.71;48.57;95689.38;5068938;28;20207;-62
2021/06/05 07:52:12;;;;;;;17.40;8.90;;;;;;;21.47;47.82;95690.78;5055316;28;20198;-64
2021/06/05 07:54:39;;;;;;;11.37;8.87;;;;;;;21.69;47.30;95685.41;5068847;28;20200;-64
2021/06/05 07:57:08;;;;;;;13.00;7.70;;;;;;;21.58;46.46;95690.22;5069357;28;20246;-65
2021/06/05 07:59:35;;;;;;;14.00;8.07;;;;;;;21.98;46.27;95683.88;5069033;28;20204;-65
2021/06/05 08:02:02;;;;;;;13.77;7.60;;;;;;;22.03;46.92;95681.06;5068067;28;20283;-64
2021/06/05 08:04:29;;;;;;;11.57;8.43;;;;;;;21.75;45.84;95684.22;5068602;28;20198;-67
2021/06/05 08:06:56;;;;;;;12.53;8.17;;;;;;;22.04;45.53;95676.53;5049737;28;20292;-64
2021/06/05 08:09:23;;;;;;;79.70;59.13;;;;;;;22.30;45.55;95672.03;5048754;28;20189;-64
2021/06/05 08:11:50;;;;;;;19.87;14.43;;;;;;;21.61;45.25;95680.81;5067049;28;20665;-63
2021/06/05 08:14:17;;;;;;;16.07;10.13;;;;;;;22.10;44.55;95670.72;5067347;28;20682;-64
2021/06/05 08:16:44;;;;;;;15.23;9.60;;;;;;;22.17;44.60;95670.28;5067922;28;20300;-63
2021/06/05 08:19:13;;;;;;;12.20;8.53;;;;;;;21.99;43.95;95668.63;5067742;28;20192;-65
2021/06/05 08:21:43;;;;;;;11.07;7.90;;;;;;;22.04;43.92;95663.19;5066076;28;20199;-66
2021/06/05 08:24:11;;;;;;;15.23;7.77;;;;;;;22.39;43.53;95662.16;5069148;28;20202;-66
2021/06/05 08:26:39;;;;;;;14.97;7.90;;;;;;;22.72;44.03;95663.34;5069952;28;20630;-67
2021/06/05 08:29:06;;;;;;;11.93;5.97;;;;;;;22.98;42.79;95650.81;5071702;28;20673;-66
2021/06/05 08:31:34;;;;;;;8.03;6.17;;;;;;;22.54;42.11;95664.41;5071924;28;20635;-64
2021/06/05 08:34:01;;;;;;;10.00;6.60;;;;;;;22.05;41.34;95656.72;5069972;28;20207;-67
2021/06/05 08:36:30;;;;;;;12.23;6.40;;;;;;;22.22;41.44;95656.81;5070889;28;20306;-65
2021/06/05 08:38:57;;;;;;;8.73;6.33;;;;;;;22.60;41.30;95647.16;5070507;28;20188;-65
2021/06/05 08:41:26;;;;;;;11.20;6.43;;;;;;;22.90;41.09;95654.25;5072191;28;20196;-65
2021/06/05 08:44:37;;;;;;;11.83;5.20;;;;;;;23.11;38.21;95652.53;5071415;28;20230;-64
2021/06/05 08:47:17;;;;;;;8.10;4.80;;;;;;;23.41;38.79;95639.31;5066325;28;20262;-65
2021/06/05 08:49:45;;;;;;;64.53;42.17;;;;;;;23.42;38.36;95646.22;5052778;28;20674;-65
2021/06/05 08:52:32;;;;;;;15.60;5.87;;;;;;;23.00;36.70;95640.59;5066218;28;20189;-64
2021/06/05 08:55:17;;;;;;;7.07;4.40;;;;;;;22.85;36.89;95638.38;5064906;28;20199;-64
2021/06/05 08:57:47;;;;;;;10.77;3.97;;;;;;;22.61;36.19;95632.69;5065508;28;20246;-64
2021/06/05 09:00:20;;;;;;;6.43;4.00;;;;;;;22.74;36.37;95631.78;5066788;28;20196;-62
2021/06/05 09:02:50;;;;;;;8.27;4.10;;;;;;;23.30;37.31;95627.38;5072641;28;20200;-66
2021/06/05 09:05:22;;;;;;;7.23;4.47;;;;;;;23.56;37.14;95620.06;5065356;28;20258;-66
2021/06/05 09:07:50;;;;;;;5.10;3.97;;;;;;;23.75;36.99;95601.75;5065118;28;20208;-68
2021/06/05 09:10:19;;;;;;;6.33;3.97;;;;;;;23.86;34.69;95608.31;5065175;28;20185;-65
2021/06/05 09:12:46;;;;;;;5.93;3.97;;;;;;;24.11;34.63;95610.09;5053623;28;20607;-64
2021/06/05 09:15:39;;;;;;;11.77;4.10;;;;;;;24.11;34.74;95612.78;5056331;28;20685;-64
2021/06/05 09:18:11;;;;;;;23.83;21.33;;;;;;;24.31;34.58;95609.38;5067614;28;20573;-64
2021/06/05 09:21:04;;;;;;;25.10;17.37;;;;;;;24.56;35.56;95602.28;5066205;28;20204;-65
2021/06/05 09:23:35;;;;;;;7.67;5.53;;;;;;;24.44;36.17;95600.31;5068901;28;20745;-65
2021/06/05 09:26:24;;;;;;;6.37;4.30;;;;;;;24.63;34.38;95600.66;5063024;28;20678;-66
2021/06/05 09:29:16;;;;;;;8.50;4.57;;;;;;;24.62;33.78;95593.72;5071261;28;20635;-66
2021/06/05 09:32:00;;;;;;;10.77;4.30;;;;;;;24.68;33.92;95583.59;5055802;28;20229;-65
2021/06/05 09:34:34;;;;;;;6.73;4.13;;;;;;;24.35;34.11;95582.72;5062244;28;20204;-65
2021/06/05 09:37:02;;;;;;;9.13;5.10;;;;;;;24.37;33.64;95585.84;5063923;28;20225;-66
2021/06/05 09:39:58;;;;;;;9.93;4.23;;;;;;;24.81;35.37;95575.31;5069534;28;20196;-65
2021/06/05 09:42:33;;;;;;;14.23;11.03;;;;;;;24.99;33.77;95568.69;5070607;28;20242;-65
2021/06/05 09:45:01;;;;;;;5.03;4.53;;;;;;;24.78;33.37;95565.22;5063621;28;20199;-68
2021/06/05 09:47:31;;;;;;;5.70;4.30;;;;;;;25.25;32.75;95559.59;5061871;28;20556;-67
2021/06/05 09:50:38;;;;;;;7.77;4.40;;;;;;;25.47;33.98;95564.59;5056662;28;20210;-66
2021/06/05 09:53:26;;;;;;;5.07;4.13;;;;;;;25.28;31.68;95558.91;5058073;28;20226;-66
2021/06/05 09:55:55;;;;;;;3.60;3.17;;;;;;;24.62;31.25;95561.56;5065847;28;20218;-66
2021/06/05 09:58:42;;;;;;;5.83;3.80;;;;;;;24.46;32.25;95557.09;5065813;28;20673;-65
2021/06/05 10:01:25;;;;;;;5.90;3.43;;;;;;;24.20;31.77;95554.59;5066661;28;20210;-66
2021/06/05 10:04:18;;;;;;;6.10;4.63;;;;;;;24.28;32.07;95551.09;5064941;28;20200;-66
2021/06/05 10:06:49;;;;;;;6.93;4.37;;;;;;;24.26;32.09;95552.53;5064106;28;20661;-66
2021/06/05 10:09:25;;;;;;;6.37;3.37;;;;;;;24.85;31.14;95548.63;5070007;28;20325;-66
2021/06/05 10:12:00;;;;;;;4.57;3.50;;;;;;;25.49;32.18;95544.34;5065737;28;20222;-67
2021/06/05 10:14:53;;;;;;;4.90;3.80;;;;;;;25.57;31.38;95542.69;5068377;28;20200;-65
2021/06/05 10:17:52;;;;;;;5.20;3.53;;;;;;;25.41;31.38;95539.06;5068504;28;20224;-65
2021/06/05 10:20:39;;;;;;;14.40;4.30;;;;;;;25.43;30.72;95548.38;5067016;28;20681;-65
2021/06/05 10:23:08;;;;;;;8.53;3.53;;;;;;;25.15;31.69;95551.94;5065403;28;20199;-66
2021/06/05 10:25:47;;;;;;;36.73;32.77;;;;;;;25.14;33.15;95543.13;5066879;28;20475;-65
2021/06/05 10:28:27;;;;;;;21.17;18.43;;;;;;;25.29;32.12;95531.00;5068746;28;20560;-64
2021/06/05 10:31:09;;;;;;;9.87;4.33;;;;;;;25.26;29.70;95537.00;5060481;28;20728;-67
2021/06/05 10:33:57;;;;;;;7.53;3.47;;;;;;;25.51;29.77;95538.66;5065653;28;22150;-66
2021/06/05 10:36:31;;;;;;;4.93;3.47;;;;;;;25.95;29.32;95535.06;5065125;28;20302;-67
2021/06/05 10:39:12;;;;;;;3.63;3.33;;;;;;;26.25;27.79;95528.38;5067359;28;20203;-67
2021/06/05 10:41:43;;;;;;;9.37;3.67;;;;;;;26.43;27.49;95529.66;5064866;28;20200;-65
2021/06/05 10:44:11;;;;;;;11.77;3.63;;;;;;;26.52;27.30;95518.78;5066503;28;20206;-67
2021/06/05 10:47:00;;;;;;;3.03;2.70;;;;;;;26.56;29.65;95512.38;5066042;28;20327;-67
2021/06/05 10:49:50;;;;;;;12.73;3.30;;;;;;;26.76;28.68;95516.81;5064962;28;20194;-64
2021/06/05 10:52:29;;;;;;;4.83;3.10;;;;;;;25.82;26.93;95514.75;5065319;28;20229;-64
2021/06/05 10:55:19;;;;;;;4.43;2.90;;;;;;;26.03;26.78;95508.13;5067677;28;20243;-64
2021/06/05 10:57:48;;;;;;;4.67;3.27;;;;;;;25.98;25.90;95507.56;5062710;28;20278;-66
2021/06/05 11:00:21;;;;;;;4.50;3.10;;;;;;;26.14;25.84;95505.78;5066715;28;20203;-65
2021/06/05 11:02:58;;;;;;;9.50;3.30;;;;;;;26.36;26.27;95499.91;5062872;28;20206;-65
2021/06/05 11:05:32;;;;;;;6.30;3.23;;;;;;;27.08;27.81;95492.69;5060743;28;20203;-66
2021/06/05 11:08:07;;;;;;;4.57;3.10;;;;;;;27.41;25.68;95482.41;5064619;28;20188;-67
2021/06/05 11:10:43;;;;;;;6.83;3.00;;;;;;;27.71;25.84;95486.22;5065401;28;20579;-66
2021/06/05 11:13:10;;;;;;;3.97;2.60;;;;;;;27.52;24.50;95486.13;5066590;28;20211;-67
2021/06/05 11:15:59;;;;;;;7.03;3.00;;;;;;;27.27;26.14;95484.72;5065662;28;20196;-65
2021/06/05 11:18:45;;;;;;;7.03;2.93;;;;;;;26.84;26.71;95486.28;5062589;28;20691;-66
2021/06/05 11:21:24;;;;;;;29.80;26.67;;;;;;;26.82;26.71;95487.78;5069489;28;20206;-64
2021/06/05 11:23:57;;;;;;;5.93;4.43;;;;;;;26.26;25.13;95478.88;5065504;28;20579;-64
2021/06/05 11:26:34;;;;;;;5.80;3.20;;;;;;;27.02;25.57;95479.47;5066840;28;20192;-64
2021/06/05 11:29:26;;;;;;;4.17;2.97;;;;;;;27.45;25.78;95470.59;5065617;28;20203;-66
2021/06/05 11:32:15;;;;;;;5.50;2.90;;;;;;;27.80;25.73;95470.66;5065067;28;20241;-63
2021/06/05 11:34:42;;;;;;;3.17;2.77;;;;;;;26.98;25.65;95467.84;5066591;28;20258;-65
2021/06/05 11:37:15;;;;;;;5.47;3.13;;;;;;;27.31;25.29;95475.63;5060225;28;20223;-64
2021/06/05 11:39:46;;;;;;;5.27;3.07;;;;;;;27.40;27.03;95475.47;5066208;28;20194;-63
2021/06/05 11:42:16;;;;;;;3.97;3.03;;;;;;;27.15;26.75;95468.66;5059584;28;20192;-66
2021/06/05 11:45:03;;;;;;;4.47;3.00;;;;;;;26.60;27.56;95478.31;5063592;28;20195;-65
2021/06/05 11:47:31;;;;;;;3.50;3.10;;;;;;;26.65;28.55;95480.75;5058849;28;20269;-65
2021/06/05 11:50:10;;;;;;;240.07;214.50;;;;;;;26.76;28.65;95471.09;5065392;28;20203;-66